Time;durP1;ratioP1;P1;durP2;ratioP2;P2;SDS_P1;SDS_P2;PMS_P1;PMS_P2;Temp;Humidity;BMP_temperature;BMP_pressure;BME280_temperature;BME280_humidity;BME280_pressure;Samples;Min_cycle;Max_cycle;Signal;HPM_P1;HPM_P2
2022/07/06 00:02:04;;;;;;;3.77;3.47;;;;;;;16.26;75.90;100819.81;1826185;77;20978;-78
2022/07/06 00:04:31;;;;;;;4.33;3.37;;;;;;;16.17;75.59;100817.20;1826417;77;21502;-77
2022/07/06 00:06:58;;;;;;;6.12;3.87;;;;;;;16.17;75.59;100817.20;1826310;77;21018;-77
2022/07/06 00:09:25;;;;;;;5.42;3.62;;;;;;;16.15;75.96;100818.22;1826269;78;21008;-82
2022/07/06 00:11:55;;;;;;;4.62;3.30;;;;;;;16.09;75.61;100812.79;1825947;78;21072;-77
2022/07/06 00:14:22;;;;;;;4.47;3.47;;;;;;;16.09;75.61;100812.79;1805060;78;21001;-77
2022/07/06 00:16:49;;;;;;;7.35;3.55;;;;;;;16.10;75.56;100823.78;1826107;77;21008;-86
2022/07/06 00:19:17;;;;;;;4.70;3.02;;;;;;;16.07;75.41;100819.94;1825632;78;21055;-82
2022/07/06 00:21:43;;;;;;;4.50;3.40;;;;;;;16.04;75.32;100820.11;1826068;77;21462;-84
2022/07/06 00:24:10;;;;;;;6.55;2.90;;;;;;;16.02;75.30;100822.85;1825575;78;21031;-81
2022/07/06 00:26:37;;;;;;;6.03;3.40;;;;;;;15.98;75.19;100824.41;1825913;78;21035;-78
2022/07/06 00:29:04;;;;;;;3.72;3.02;;;;;;;15.96;75.20;100823.63;1825555;78;21644;-78
2022/07/06 00:31:32;;;;;;;6.33;4.12;;;;;;;15.94;75.25;100827.69;1825933;78;20969;-81
2022/07/06 00:33:58;;;;;;;4.05;3.42;;;;;;;15.92;75.17;100830.02;1825728;77;21011;-79
2022/07/06 00:36:26;;;;;;;6.47;3.60;;;;;;;15.89;75.08;100832.36;1826033;78;21885;-78
2022/07/06 00:38:53;;;;;;;4.37;3.17;;;;;;;15.87;75.20;100835.54;1825486;78;21050;-79
2022/07/06 00:41:20;;;;;;;4.47;3.77;;;;;;;15.84;75.12;100841.84;1825979;78;20976;-84
2022/07/06 00:43:56;;;;;;;5.33;3.17;;;;;;;15.79;75.06;100841.69;1825720;78;21095;-78
2022/07/06 00:46:32;;;;;;;4.67;3.25;;;;;;;15.74;75.01;100840.63;1825891;77;20953;-78
2022/07/06 00:49:00;;;;;;;8.15;3.83;;;;;;;15.70;75.07;100843.02;1825687;77;21081;-77
2022/07/06 00:51:31;;;;;;;8.28;3.58;;;;;;;15.66;74.96;100840.57;1825776;78;21060;-78
2022/07/06 00:54:02;;;;;;;5.80;3.58;;;;;;;15.60;74.96;100833.37;1825061;78;20924;-77
2022/07/06 00:56:31;;;;;;;5.00;3.83;;;;;;;15.58;75.13;100830.42;1826006;77;21008;-83
2022/07/06 00:59:01;;;;;;;5.78;3.67;;;;;;;15.57;75.11;100832.21;1825680;78;21012;-85
2022/07/06 01:01:29;;;;;;;5.85;3.65;;;;;;;15.52;75.01;100833.34;1824182;77;21691;-77
2022/07/06 01:03:56;;;;;;;4.92;3.42;;;;;;;15.49;75.08;100833.06;1818286;77;21000;-77
2022/07/06 01:06:23;;;;;;;10.05;4.08;;;;;;;15.48;75.04;100837.09;1828762;78;21086;-77
2022/07/06 01:08:50;;;;;;;6.75;4.10;;;;;;;15.45;75.01;100842.06;1828898;78;20995;-77
2022/07/06 01:11:19;;;;;;;6.25;4.12;;;;;;;15.38;74.81;100840.67;1828915;78;20994;-78
2022/07/06 01:13:49;;;;;;;8.45;4.22;;;;;;;15.29;74.62;100831.87;1799745;78;21173;-81
2022/07/06 01:16:17;;;;;;;8.33;3.90;;;;;;;15.22;74.62;100822.09;1828947;78;21458;-78
2022/07/06 01:18:44;;;;;;;6.95;4.10;;;;;;;15.17;74.65;100820.14;1828774;78;20988;-77
2022/07/06 01:21:15;;;;;;;5.65;3.70;;;;;;;15.16;74.84;100818.44;1828849;78;21060;-77
2022/07/06 01:23:47;;;;;;;5.58;4.22;;;;;;;15.16;74.82;100814.01;1828827;78;21361;-78
2022/07/06 01:26:19;;;;;;;5.40;4.15;;;;;;;15.17;74.63;100812.22;1807197;78;21098;-78
2022/07/06 01:28:48;;;;;;;5.95;3.70;;;;;;;15.19;74.57;100815.64;1828658;78;20962;-77
2022/07/06 01:31:20;;;;;;;6.97;4.40;;;;;;;15.21;74.62;100815.55;1829059;78;21043;-77
2022/07/06 01:33:48;;;;;;;6.47;3.87;;;;;;;15.26;74.69;100812.22;1828513;78;21464;-80
2022/07/06 01:36:15;;;;;;;5.85;3.75;;;;;;;15.28;74.41;100815.17;1828840;78;21493;-77
2022/07/06 01:38:51;;;;;;;6.08;4.30;;;;;;;15.29;74.35;100815.55;1828797;78;21877;-84
2022/07/06 01:41:20;;;;;;;8.35;3.80;;;;;;;15.31;74.29;100810.20;1821377;77;21007;-79
2022/07/06 01:43:47;;;;;;;4.85;3.62;;;;;;;15.34;74.12;100815.33;1814631;78;21001;-79
2022/07/06 01:46:19;;;;;;;6.75;3.90;;;;;;;15.37;74.09;100814.70;1805913;78;21020;-79
2022/07/06 01:48:47;;;;;;;7.03;3.98;;;;;;;15.36;73.78;100815.65;1829096;78;21019;-78
2022/07/06 01:51:14;;;;;;;5.50;4.00;;;;;;;15.33;73.72;100820.23;1829011;78;21124;-86
2022/07/06 01:53:43;;;;;;;6.53;3.90;;;;;;;15.31;73.57;100820.77;1814269;78;21054;-78
2022/07/06 01:56:11;;;;;;;5.85;3.85;;;;;;;15.26;73.53;100826.27;1821466;78;21047;-78
2022/07/06 01:58:39;;;;;;;6.67;3.95;;;;;;;15.25;73.53;100825.05;1829129;78;21051;-79
2022/07/06 02:01:16;;;;;;;5.80;4.00;;;;;;;15.18;73.22;100833.25;1812944;78;21397;-81
2022/07/06 02:03:43;;;;;;;8.33;4.03;;;;;;;15.10;73.23;100834.12;1796511;78;21913;-78
2022/07/06 02:06:15;;;;;;;6.47;3.83;;;;;;;15.06;73.34;100830.37;1800232;78;21600;-79
2022/07/06 02:08:41;;;;;;;6.00;4.37;;;;;;;15.00;73.21;100832.00;1824414;78;20973;-78
2022/07/06 02:11:10;;;;;;;7.10;4.03;;;;;;;14.91;73.38;100834.15;1810188;78;21000;-78
2022/07/06 02:13:39;;;;;;;13.50;4.35;;;;;;;14.94;73.73;100844.56;1829022;78;21065;-80
2022/07/06 02:16:08;;;;;;;7.65;4.40;;;;;;;14.96;73.92;100848.42;1828963;78;21150;-77
2022/07/06 02:18:36;;;;;;;6.67;4.25;;;;;;;14.99;74.06;100848.74;1806553;78;20984;-77
2022/07/06 02:21:05;;;;;;;8.40;4.60;;;;;;;15.01;74.07;100844.25;1828798;78;21489;-86
2022/07/06 02:23:32;;;;;;;6.30;4.28;;;;;;;15.07;74.01;100838.67;1828788;78;21004;-78
2022/07/06 02:25:59;;;;;;;6.40;4.15;;;;;;;15.05;73.90;100835.27;1829131;78;21531;-78
2022/07/06 02:28:26;;;;;;;6.97;4.12;;;;;;;15.06;74.14;100829.05;1828747;78;21097;-78
2022/07/06 02:30:54;;;;;;;6.80;4.30;;;;;;;15.15;74.31;100832.55;1828945;78;21023;-77
2022/07/06 02:33:21;;;;;;;6.05;4.17;;;;;;;15.18;74.07;100833.25;1828846;78;20996;-78
2022/07/06 02:35:48;;;;;;;6.70;4.10;;;;;;;15.20;74.05;100834.98;1806064;78;20992;-84
2022/07/06 02:38:15;;;;;;;6.25;4.40;;;;;;;15.21;74.02;100844.13;1828776;78;21020;-85
2022/07/06 02:40:42;;;;;;;5.75;4.30;;;;;;;15.22;74.02;100839.72;1829133;78;21571;-78
2022/07/06 02:43:10;;;;;;;7.28;4.83;;;;;;;15.22;73.94;100840.58;1810240;78;20989;-79
2022/07/06 02:45:39;;;;;;;8.90;3.92;;;;;;;15.26;74.14;100846.55;1829104;78;21012;-78
2022/07/06 02:48:06;;;;;;;8.10;4.10;;;;;;;15.32;74.17;100846.23;1828734;78;21024;-83
2022/07/06 02:50:33;;;;;;;6.65;4.50;;;;;;;15.38;74.11;100855.20;1829153;78;21000;-78
2022/07/06 02:53:01;;;;;;;9.15;4.35;;;;;;;15.37;73.85;100860.92;1828717;78;22116;-79
2022/07/06 02:55:29;;;;;;;9.83;4.28;;;;;;;15.35;73.93;100889.22;1828759;78;21520;-78
2022/07/06 02:57:56;;;;;;;9.13;4.90;;;;;;;15.36;74.06;100913.38;1828984;78;20989;-77
2022/07/06 03:00:23;;;;;;;10.23;5.50;;;;;;;15.33;73.75;100917.96;1828751;78;21051;-77
2022/07/06 03:02:50;;;;;;;9.18;4.80;;;;;;;15.31;73.70;100909.25;1828793;78;21056;-77
2022/07/06 03:05:17;;;;;;;19.37;5.33;;;;;;;15.30;73.80;100909.72;1811086;78;20996;-78
2022/07/06 03:07:44;;;;;;;12.50;5.15;;;;;;;15.33;73.93;100921.92;1829006;77;21008;-80
2022/07/06 03:10:11;;;;;;;6.12;4.58;;;;;;;15.30;74.05;100920.28;1806130;77;21655;-83
2022/07/06 03:12:39;;;;;;;10.72;5.33;;;;;;;15.25;74.23;100928.03;1829406;78;21047;-77
2022/07/06 03:15:09;;;;;;;11.08;4.90;;;;;;;15.02;74.26;100932.63;1829157;78;20988;-78
2022/07/06 03:17:37;;;;;;;6.03;4.30;;;;;;;14.78;75.12;100935.09;1829328;78;21072;-78
2022/07/06 03:20:06;;;;;;;11.68;4.80;;;;;;;14.66;75.62;100929.88;1829068;78;21003;-78
2022/07/06 03:22:33;;;;;;;7.05;4.62;;;;;;;14.55;76.06;100932.16;1829359;78;20964;-77
2022/07/06 03:25:01;;;;;;;6.40;4.67;;;;;;;14.46;76.67;100928.97;1829327;78;21517;-78
2022/07/06 03:27:29;;;;;;;5.65;4.25;;;;;;;14.41;77.36;100924.82;1829411;78;21000;-86
2022/07/06 03:29:56;;;;;;;7.35;4.42;;;;;;;14.37;77.73;100925.43;1829230;78;21188;-78
2022/07/06 03:32:23;;;;;;;6.78;4.65;;;;;;;14.35;77.67;100929.91;1806479;78;21039;-78
2022/07/06 03:34:51;;;;;;;6.53;4.60;;;;;;;14.28;77.68;100933.30;1829110;78;21042;-78
2022/07/06 03:37:18;;;;;;;6.20;4.80;;;;;;;14.24;78.36;100929.09;1829383;77;21067;-79
2022/07/06 03:39:45;;;;;;;7.80;4.47;;;;;;;14.22;78.58;100924.80;1829277;78;21532;-78
2022/07/06 03:42:12;;;;;;;8.53;5.40;;;;;;;14.23;78.68;100927.83;1829405;78;21757;-88
2022/07/06 03:44:39;;;;;;;5.00;4.50;;;;;;;14.22;78.94;100926.13;1828994;77;21020;-78
2022/07/06 03:47:06;;;;;;;5.80;4.45;;;;;;;14.23;78.95;100926.51;1829027;78;21012;-79
2022/07/06 03:49:34;;;;;;;7.85;4.08;;;;;;;14.24;79.20;100929.53;1829469;77;20989;-78
2022/07/06 03:52:03;;;;;;;5.08;4.00;;;;;;;14.23;79.31;100931.31;1829328;78;21481;-78
2022/07/06 03:54:32;;;;;;;5.80;3.87;;;;;;;14.21;79.27;100934.94;1829658;77;21066;-78
2022/07/06 03:56:59;;;;;;;5.97;3.67;;;;;;;14.22;79.58;100932.25;1829205;77;21454;-78
2022/07/06 03:59:26;;;;;;;7.37;4.08;;;;;;;14.21;79.56;100930.98;1829616;77;21022;-79
2022/07/06 04:01:54;;;;;;;3.87;3.45;;;;;;;14.20;79.61;100926.64;1829200;77;20995;-78
2022/07/06 04:04:22;;;;;;;7.03;3.52;;;;;;;14.23;80.05;100925.19;1829630;78;21044;-91
2022/07/06 04:06:49;;;;;;;4.35;3.35;;;;;;;14.24;80.04;100933.05;1826175;77;21054;-79
2022/07/06 04:09:16;;;;;;;4.37;3.25;;;;;;;14.22;80.10;100932.25;1811000;78;21437;-78
2022/07/06 04:11:43;;;;;;;3.90;3.50;;;;;;;14.27;80.14;100930.27;1818433;78;21000;-78
2022/07/06 04:14:10;;;;;;;4.60;3.67;;;;;;;14.30;80.37;100926.64;1825841;78;20985;-79
2022/07/06 04:16:38;;;;;;;7.05;3.90;;;;;;;14.36;80.48;100926.84;1825993;78;21462;-79
2022/07/06 04:19:05;;;;;;;3.87;3.27;;;;;;;14.40;80.74;100927.08;1814115;78;21083;-77
2022/07/06 04:21:33;;;;;;;6.80;3.65;;;;;;;14.41;80.59;100923.50;1799829;78;21479;-77
2022/07/06 04:24:00;;;;;;;8.03;3.55;;;;;;;14.44;80.92;100924.72;1806176;78;21027;-83
2022/07/06 04:26:27;;;;;;;4.03;3.58;;;;;;;14.45;80.93;100924.63;1809520;78;21091;-84
2022/07/06 04:28:55;;;;;;;7.75;3.77;;;;;;;14.50;80.96;100925.28;1808052;78;21035;-85
2022/07/06 04:31:23;;;;;;;7.10;3.90;;;;;;;14.52;80.83;100917.31;1789903;78;21086;-80
2022/07/06 04:33:50;;;;;;;4.80;3.67;;;;;;;14.53;81.24;100924.33;1797289;78;21079;-77
2022/07/06 04:36:18;;;;;;;6.50;3.80;;;;;;;14.62;81.88;100919.94;1805972;78;21078;-77
2022/07/06 04:38:47;;;;;;;6.58;4.08;;;;;;;14.68;82.08;100917.02;1793435;78;21274;-78
2022/07/06 04:41:15;;;;;;;9.10;4.53;;;;;;;14.73;82.26;100929.54;1807461;78;21016;-77
2022/07/06 04:43:43;;;;;;;8.45;4.53;;;;;;;14.80;82.64;100922.66;1817412;77;21055;-77
2022/07/06 04:46:12;;;;;;;6.20;5.05;;;;;;;14.84;83.06;100917.64;1807768;77;21525;-78
2022/07/06 04:48:40;;;;;;;7.58;5.33;;;;;;;14.90;83.41;100920.84;1799338;78;21520;-87
2022/07/06 04:51:09;;;;;;;6.70;4.90;;;;;;;14.99;83.63;100930.58;1795692;78;21011;-88
2022/07/06 04:53:36;;;;;;;6.78;4.85;;;;;;;14.99;83.39;100926.14;1801572;78;21270;-80
2022/07/06 04:56:04;;;;;;;10.03;4.58;;;;;;;14.98;83.42;100916.52;1791655;78;21185;-81
2022/07/06 04:58:31;;;;;;;7.05;5.17;;;;;;;14.97;83.45;100910.02;1810730;78;21526;-73
2022/07/06 05:00:58;;;;;;;8.90;4.92;;;;;;;14.99;83.72;100912.09;1806139;78;21586;-77
2022/07/06 05:03:26;;;;;;;6.97;4.80;;;;;;;15.00;83.93;100912.51;1796488;78;21059;-77
2022/07/06 05:05:53;;;;;;;6.65;4.72;;;;;;;14.95;83.62;100917.99;1808540;78;21008;-75
2022/07/06 05:08:20;;;;;;;5.30;4.30;;;;;;;14.90;83.66;100926.12;1798674;78;21088;-76
2022/07/06 05:10:48;;;;;;;9.45;5.15;;;;;;;14.84;83.74;100932.16;1810702;78;21001;-77
2022/07/06 05:13:16;;;;;;;10.60;5.53;;;;;;;14.83;84.24;100924.71;1800981;78;20989;-77
2022/07/06 05:15:44;;;;;;;8.95;4.53;;;;;;;14.82;84.38;100925.62;1804908;77;21016;-74
2022/07/06 05:18:11;;;;;;;5.72;5.17;;;;;;;14.83;84.66;100919.90;1819151;78;21445;-76
2022/07/06 05:20:40;;;;;;;7.47;4.70;;;;;;;14.84;84.87;100917.17;1801466;78;21011;-77
2022/07/06 05:23:07;;;;;;;5.92;4.75;;;;;;;14.86;84.87;100907.87;1824692;78;21039;-80
2022/07/06 05:25:35;;;;;;;5.80;4.95;;;;;;;14.91;85.15;100909.38;1825904;78;20992;-79
2022/07/06 05:28:03;;;;;;;5.78;4.58;;;;;;;14.99;85.29;100906.34;1825700;78;20973;-77
2022/07/06 05:30:30;;;;;;;6.30;4.72;;;;;;;15.05;85.45;100895.99;1824997;78;21016;-78
2022/07/06 05:32:57;;;;;;;5.97;4.72;;;;;;;15.07;85.26;100881.77;1825677;78;21089;-82
2022/07/06 05:35:24;;;;;;;5.33;4.50;;;;;;;15.09;85.70;100875.95;1825912;78;21043;-84
2022/07/06 05:37:51;;;;;;;7.65;4.97;;;;;;;15.13;85.47;100876.21;1825569;78;20993;-78
2022/07/06 05:40:19;;;;;;;6.75;4.83;;;;;;;15.14;85.62;100879.23;1825897;78;20977;-78
2022/07/06 05:42:46;;;;;;;5.87;4.65;;;;;;;15.17;85.51;100886.15;1825667;78;21080;-81
2022/07/06 05:45:14;;;;;;;5.05;4.62;;;;;;;15.18;85.46;100890.02;1825990;78;21744;-78
2022/07/06 05:50:29;;;;;;;5.70;4.65;;;;;;;15.35;86.00;100905.07;1826003;78;21514;-78
2022/07/06 05:53:04;;;;;;;7.65;5.10;;;;;;;15.38;85.45;100915.95;1825729;78;21017;-78
2022/07/06 05:55:33;;;;;;;4.53;4.12;;;;;;;15.30;85.07;100912.83;1825972;78;20977;-81
2022/07/06 05:58:02;;;;;;;4.37;3.70;;;;;;;15.26;85.22;100912.09;1825790;78;21097;-79
2022/07/06 06:00:30;;;;;;;6.05;3.55;;;;;;;15.26;84.98;100912.09;1826006;78;21378;-77
2022/07/06 06:02:59;;;;;;;4.45;3.47;;;;;;;15.25;84.84;100917.00;1825733;78;21031;-78
2022/07/06 06:05:26;;;;;;;4.72;3.77;;;;;;;15.24;84.89;100921.02;1825876;78;21031;-84
2022/07/06 06:07:55;;;;;;;5.15;3.52;;;;;;;15.23;84.76;100928.09;1825691;78;20996;-83
2022/07/06 06:10:24;;;;;;;4.90;3.27;;;;;;;15.16;84.65;100926.70;1802911;78;22098;-91
2022/07/06 06:12:53;;;;;;;4.20;3.80;;;;;;;15.18;84.77;100934.91;1817275;78;21055;-79
2022/07/06 06:15:20;;;;;;;5.22;3.72;;;;;;;15.17;84.70;100935.00;1804911;77;20981;-78
2022/07/06 06:17:47;;;;;;;5.35;4.22;;;;;;;15.12;85.01;100919.36;1793072;78;21055;-79
2022/07/06 06:20:15;;;;;;;4.20;3.60;;;;;;;15.12;85.01;100919.36;1793509;77;20985;-84
2022/07/06 06:22:51;;;;;;;7.40;3.52;;;;;;;15.16;84.69;100937.26;1793205;78;22042;-77
2022/07/06 06:25:34;;;;;;;5.10;3.77;;;;;;;15.06;84.69;100929.38;1816268;78;21781;-78
2022/07/06 06:28:03;;;;;;;5.95;3.87;;;;;;;15.05;84.85;100934.27;1791870;77;21043;-81
2022/07/06 06:30:31;;;;;;;6.42;4.25;;;;;;;15.10;85.46;100937.52;1793724;77;20955;-79
2022/07/06 06:33:14;;;;;;;4.35;3.98;;;;;;;15.16;85.76;100940.75;1793338;77;21517;-83
2022/07/06 06:35:51;;;;;;;8.50;3.95;;;;;;;15.17;85.40;100929.25;1793536;77;21071;-89
2022/07/06 06:38:22;;;;;;;5.50;4.08;;;;;;;15.20;85.51;100934.00;1793343;78;20969;-79
2022/07/06 06:40:49;;;;;;;5.62;4.42;;;;;;;15.28;85.81;100933.17;1793533;78;21062;-78
2022/07/06 06:43:16;;;;;;;6.42;3.85;;;;;;;15.40;85.97;100923.31;1793220;78;20981;-79
2022/07/06 06:45:53;;;;;;;5.60;4.00;;;;;;;15.47;85.49;100930.50;1792598;77;21020;-79
2022/07/06 06:48:20;;;;;;;6.85;4.10;;;;;;;15.64;85.50;100919.94;1793434;78;21146;-92
2022/07/06 06:50:48;;;;;;;6.45;4.10;;;;;;;15.64;85.50;100919.94;1793062;78;21454;-79
2022/07/06 06:53:15;;;;;;;6.40;4.00;;;;;;;15.83;85.14;100919.44;1793388;77;21079;-78
2022/07/06 06:55:42;;;;;;;5.10;4.35;;;;;;;15.83;85.14;100919.44;1793170;77;21027;-87
2022/07/06 06:58:09;;;;;;;6.40;5.28;;;;;;;15.97;84.99;100927.14;1793521;77;21158;-79
2022/07/06 07:00:37;;;;;;;7.60;4.85;;;;;;;16.09;85.12;100933.58;1793061;77;21562;-83
2022/07/06 07:03:04;;;;;;;9.98;4.87;;;;;;;16.17;84.71;100933.56;1793335;77;20981;-91
2022/07/06 07:05:30;;;;;;;5.62;4.80;;;;;;;16.33;84.53;100931.46;1793193;77;21015;-86
2022/07/06 07:07:58;;;;;;;7.00;5.25;;;;;;;16.33;84.53;100910.30;1793227;77;20973;-79
2022/07/06 07:10:26;;;;;;;7.35;5.45;;;;;;;16.43;84.23;100927.38;1800767;78;21456;-88
2022/07/06 07:12:54;;;;;;;8.08;5.80;;;;;;;16.53;83.99;100928.60;1825784;78;21283;-77
2022/07/06 07:15:21;;;;;;;8.98;5.40;;;;;;;16.61;83.72;100934.34;1825568;78;21478;-78
2022/07/06 07:17:48;;;;;;;8.48;5.40;;;;;;;16.71;83.74;100925.42;1825898;78;21418;-78
2022/07/06 07:20:15;;;;;;;12.63;5.70;;;;;;;16.82;83.33;100932.37;1825539;78;21055;-77
2022/07/06 07:22:42;;;;;;;7.80;5.05;;;;;;;16.90;82.80;100938.10;1825976;78;21514;-77
2022/07/06 07:25:09;;;;;;;6.00;5.33;;;;;;;16.95;82.68;100935.18;1825547;78;21060;-79
2022/07/06 07:27:36;;;;;;;9.58;5.47;;;;;;;17.04;82.71;100941.28;1826155;78;20969;-78
2022/07/06 07:30:05;;;;;;;6.17;5.15;;;;;;;17.13;82.41;100932.84;1825735;78;20920;-78
2022/07/06 07:32:33;;;;;;;8.73;5.47;;;;;;;17.25;82.27;100940.57;1826019;78;21016;-92
2022/07/06 07:35:01;;;;;;;7.22;5.17;;;;;;;17.38;82.10;100935.44;1825805;78;20985;-78
2022/07/06 07:37:28;;;;;;;8.45;5.55;;;;;;;17.48;81.83;100938.41;1826072;78;21072;-78
2022/07/06 07:39:55;;;;;;;8.00;6.10;;;;;;;17.58;81.48;100939.59;1825838;78;20992;-83
2022/07/06 07:42:22;;;;;;;8.23;5.47;;;;;;;17.66;81.14;100945.30;1826131;78;21438;-78
2022/07/06 07:44:49;;;;;;;9.20;5.78;;;;;;;17.78;80.94;100947.70;1825809;78;21031;-82
2022/07/06 07:47:16;;;;;;;8.30;5.37;;;;;;;17.87;80.72;100938.39;1826158;78;20985;-78
2022/07/06 07:49:43;;;;;;;8.88;5.40;;;;;;;17.96;80.39;100937.87;1825970;78;21093;-80
2022/07/06 07:52:11;;;;;;;7.87;6.00;;;;;;;18.09;79.88;100938.82;1826069;78;21443;-78
2022/07/06 07:54:38;;;;;;;5.47;4.72;;;;;;;18.17;79.20;100944.52;1825818;78;20996;-80
2022/07/06 07:57:05;;;;;;;9.20;5.10;;;;;;;18.25;78.93;100948.05;1826059;78;21012;-87
2022/07/06 07:59:32;;;;;;;6.92;4.80;;;;;;;18.36;78.71;100950.05;1825843;78;21048;-79
2022/07/06 08:01:59;;;;;;;9.48;5.05;;;;;;;18.46;78.30;100948.08;1826020;78;22016;-78
2022/07/06 08:04:26;;;;;;;9.18;4.37;;;;;;;18.56;77.94;100949.67;1825603;78;20969;-79
2022/07/06 08:06:53;;;;;;;5.45;3.92;;;;;;;18.69;77.34;100948.45;1826071;77;21012;-79
2022/07/06 08:09:20;;;;;;;5.28;4.10;;;;;;;18.78;77.01;100953.21;1809890;78;20944;-78
2022/07/06 08:11:47;;;;;;;6.83;4.10;;;;;;;18.89;76.22;100951.21;1819311;78;21527;-78
2022/07/06 08:14:14;;;;;;;8.30;3.87;;;;;;;18.98;75.73;100951.10;1815308;78;21430;-78
2022/07/06 08:16:41;;;;;;;4.22;3.35;;;;;;;19.08;75.60;100956.22;1796969;78;20996;-81
2022/07/06 08:19:08;;;;;;;4.85;3.15;;;;;;;19.21;75.25;100949.17;1813460;78;21553;-82
2022/07/06 08:21:36;;;;;;;5.80;2.92;;;;;;;19.32;74.77;100949.81;1803122;78;21075;-75
2022/07/06 08:24:03;;;;;;;6.00;3.75;;;;;;;19.42;74.37;100948.23;1791924;78;21015;-75
2022/07/06 08:26:30;;;;;;;7.92;2.65;;;;;;;19.51;73.77;100945.00;1807283;78;21145;-75
2022/07/06 08:28:57;;;;;;;5.03;2.62;;;;;;;19.65;73.33;100949.41;1798420;78;21397;-76
2022/07/06 08:31:24;;;;;;;4.95;2.40;;;;;;;19.77;72.95;100949.09;1808364;78;21068;-75
2022/07/06 08:33:53;;;;;;;1.75;1.60;;;;;;;19.87;72.15;100946.20;1807722;78;21035;-85
2022/07/06 08:36:21;;;;;;;4.15;1.80;;;;;;;19.98;71.47;100948.11;1811769;78;21059;-76
2022/07/06 08:38:49;;;;;;;6.15;2.02;;;;;;;20.08;70.93;100947.86;1795662;78;21155;-87
2022/07/06 08:41:17;;;;;;;3.67;1.92;;;;;;;20.17;70.41;100948.55;1816732;78;21486;-82
2022/07/06 08:43:45;;;;;;;2.35;1.50;;;;;;;20.25;69.89;100946.70;1825755;78;21482;-87
2022/07/06 08:46:14;;;;;;;4.08;1.70;;;;;;;20.34;69.44;100950.08;1825944;78;21032;-90
2022/07/06 08:48:42;;;;;;;3.30;2.00;;;;;;;20.44;68.83;100946.28;1825953;78;20980;-90
2022/07/06 08:51:13;;;;;;;7.22;2.10;;;;;;;20.54;68.50;100950.05;1825942;78;21775;-90
2022/07/06 08:53:42;;;;;;;4.15;1.60;;;;;;;20.69;68.27;100946.78;1825658;78;20977;-90
2022/07/06 08:56:11;;;;;;;3.20;1.90;;;;;;;20.80;67.44;100937.55;1825781;78;27573;-90
2022/07/06 08:58:41;;;;;;;3.58;1.62;;;;;;;20.88;66.97;100934.34;1826124;78;20989;-90
2022/07/06 09:01:09;;;;;;;4.23;1.97;;;;;;;21.05;67.04;100937.11;1825748;78;21050;-92
2022/07/06 09:03:39;;;;;;;2.75;2.15;;;;;;;21.20;66.53;100937.34;1826204;78;21124;-87
2022/07/06 09:06:07;;;;;;;4.10;1.90;;;;;;;21.20;65.32;100939.13;1806971;78;21411;-87
2022/07/06 09:08:36;;;;;;;6.65;1.80;;;;;;;21.14;64.55;100938.64;1820070;77;21486;-91
2022/07/06 09:11:04;;;;;;;3.42;1.40;;;;;;;21.08;64.17;100939.55;1809389;78;21016;-88
2022/07/06 09:13:31;;;;;;;12.58;1.95;;;;;;;21.02;63.54;100938.19;1826053;78;20997;-88
2022/07/06 09:16:14;;;;;;;4.70;1.42;;;;;;;20.95;63.30;100932.95;1826008;78;21239;-89
2022/07/06 09:18:46;;;;;;;3.70;1.22;;;;;;;20.93;63.24;100926.38;1825700;78;20912;-90
2022/07/06 09:21:26;;;;;;;2.20;1.27;;;;;;;21.01;63.02;100928.98;1825771;78;21008;-88
2022/07/06 09:23:55;;;;;;;;;;;;;;;21.13;62.74;100931.59;1828517;78;21005;-89
2022/07/06 09:26:23;;;;;;;3.83;1.20;;;;;;;21.35;62.06;100928.69;1825936;78;20561;-90
2022/07/06 09:28:51;;;;;;;3.22;1.70;;;;;;;21.57;62.76;100932.83;1825622;78;21475;-89
2022/07/06 09:31:18;;;;;;;8.63;1.50;;;;;;;21.72;62.33;100929.97;1825727;78;22077;-86
2022/07/06 09:34:12;;;;;;;2.35;1.10;;;;;;;21.77;61.89;100925.98;1825573;78;21485;-88
2022/07/06 09:36:49;;;;;;;2.90;1.17;;;;;;;21.77;61.85;100933.98;1825753;78;20957;-82
2022/07/06 09:39:29;;;;;;;5.62;1.20;;;;;;;21.64;61.51;100942.54;1825693;78;21508;-85
2022/07/06 09:41:57;;;;;;;;;;;;;;;21.46;61.04;100939.94;1828248;78;21556;-86
2022/07/06 09:44:31;;;;;;;4.20;1.30;;;;;;;21.34;61.16;100945.66;1825840;78;20637;-86
2022/07/06 09:47:01;;;;;;;3.58;1.10;;;;;;;21.38;61.65;100952.00;1825900;78;21398;-86
2022/07/06 09:49:29;;;;;;;4.92;1.35;;;;;;;21.45;61.76;100940.42;1825573;78;21047;-86
2022/07/06 09:51:59;;;;;;;3.02;1.20;;;;;;;21.48;61.67;100947.34;1825667;78;20976;-86
2022/07/06 09:54:27;;;;;;;2.40;1.10;;;;;;;21.50;61.31;100946.73;1825607;78;21506;-86
2022/07/06 09:56:57;;;;;;;5.00;1.47;;;;;;;21.47;60.91;100941.63;1825625;78;21487;-86
2022/07/06 09:59:27;;;;;;;2.35;1.10;;;;;;;21.44;60.64;100941.86;1825802;78;20973;-85
2022/07/06 10:01:57;;;;;;;2.22;1.10;;;;;;;21.38;60.76;100934.67;1825618;78;20977;-87
2022/07/06 10:04:27;;;;;;;2.70;0.90;;;;;;;21.42;60.75;100940.62;1825713;78;20973;-85
2022/07/06 10:06:56;;;;;;;2.65;1.00;;;;;;;21.43;60.42;100948.16;1825633;77;21162;-85
2022/07/06 10:09:27;;;;;;;4.58;1.15;;;;;;;21.42;59.44;100942.44;1809378;78;26465;-86
2022/07/06 10:11:59;;;;;;;3.65;1.20;;;;;;;21.51;59.20;100938.63;1820489;78;21047;-86
2022/07/06 10:14:30;;;;;;;4.47;1.27;;;;;;;21.68;58.99;100929.36;1825656;78;21008;-86
2022/07/06 10:17:01;;;;;;;5.05;0.90;;;;;;;21.84;58.82;100949.07;1825604;78;21051;-86
2022/07/06 10:19:30;;;;;;;3.85;0.68;;;;;;;21.91;58.23;100952.95;1825922;78;21074;-85
2022/07/06 10:22:01;;;;;;;1.98;0.70;;;;;;;21.97;57.70;100959.16;1825795;78;21004;-85
2022/07/06 10:24:30;;;;;;;3.80;1.00;;;;;;;22.12;56.97;100957.65;1825928;78;21035;-85
2022/07/06 10:26:58;;;;;;;3.55;0.60;;;;;;;22.26;56.48;100954.80;1825751;78;20985;-87
2022/07/06 10:29:26;;;;;;;5.50;1.00;;;;;;;22.30;56.25;100953.56;1825982;78;21007;-85
2022/07/06 10:31:54;;;;;;;2.77;0.85;;;;;;;22.33;55.89;100951.15;1825785;78;21086;-86
2022/07/06 10:34:21;;;;;;;2.50;0.88;;;;;;;22.29;55.23;100947.88;1825933;78;20996;-87
2022/07/06 10:36:54;;;;;;;4.67;1.00;;;;;;;22.30;54.92;100950.05;1825761;78;20974;-82
2022/07/06 10:42:45;;;;;;;4.03;0.98;;;;;;;22.81;54.23;100947.78;1825560;78;20985;-84
2022/07/06 10:45:15;;;;;;;3.90;1.00;;;;;;;22.74;53.77;100951.91;1797629;79;21093;-84
2022/07/06 10:47:43;;;;;;;2.77;0.95;;;;;;;22.57;53.20;100947.89;1771758;79;21007;-85
2022/07/06 10:50:12;;;;;;;3.12;1.10;;;;;;;22.56;53.17;100943.53;1797469;79;20949;-85
2022/07/06 10:52:54;;;;;;;2.62;1.00;;;;;;;22.84;53.25;100965.40;1797547;79;20975;-84
2022/07/06 10:55:37;;;;;;;1.57;0.88;;;;;;;22.94;52.64;100945.80;1797191;77;21049;-87
2022/07/06 10:58:05;;;;;;;3.05;0.70;;;;;;;22.93;52.30;100951.29;1797486;79;22093;-84
2022/07/06 11:00:54;;;;;;;2.20;0.70;;;;;;;23.31;52.38;100944.70;1797406;79;21019;-83
2022/07/06 11:03:46;;;;;;;1.10;0.60;;;;;;;23.73;51.47;100939.46;1776107;79;21006;-83
2022/07/06 11:06:25;;;;;;;2.10;0.68;;;;;;;24.00;51.09;100939.81;1797418;79;21026;-84
2022/07/06 11:08:59;;;;;;;3.77;0.90;;;;;;;24.09;50.56;100942.68;1788446;78;21296;-83
2022/07/06 11:11:41;;;;;;;2.33;0.60;;;;;;;24.56;50.84;100941.28;1786761;79;21607;-84
2022/07/06 11:14:19;;;;;;;2.22;0.70;;;;;;;24.98;50.45;100937.63;1777157;79;20979;-83
2022/07/06 11:16:52;;;;;;;2.92;1.05;;;;;;;25.34;49.50;100936.17;1797855;79;21073;-84
2022/07/06 11:19:23;;;;;;;2.25;0.60;;;;;;;25.50;48.92;100953.07;1797584;79;21498;-85
2022/07/06 11:21:56;;;;;;;4.92;0.82;;;;;;;25.13;47.89;100936.23;1807670;78;20969;-81
2022/07/06 11:24:28;;;;;;;3.42;0.68;;;;;;;24.78;47.57;100945.61;1825597;78;21248;-87
2022/07/06 11:26:57;;;;;;;4.60;1.00;;;;;;;24.43;47.60;100958.91;1825819;78;21493;-83
2022/07/06 11:29:27;;;;;;;2.70;0.68;;;;;;;24.00;46.98;100953.69;1823041;78;22054;-81
2022/07/06 11:31:58;;;;;;;1.10;0.78;;;;;;;23.67;47.19;100958.19;1806861;78;20973;-84
2022/07/06 11:34:29;;;;;;;2.67;0.98;;;;;;;23.44;47.35;100953.39;1822192;78;21004;-83
2022/07/06 11:36:58;;;;;;;2.98;1.10;;;;;;;23.28;47.37;100958.30;1808095;78;21127;-84
2022/07/06 11:39:30;;;;;;;2.67;0.80;;;;;;;23.12;47.16;100954.20;1815779;78;20989;-84